Time;durP1;ratioP1;P1;durP2;ratioP2;P2;SDS_P1;SDS_P2;PMS_P1;PMS_P2;Temp;Humidity;BMP_temperature;BMP_pressure;BME280_temperature;BME280_humidity;BME280_pressure;Samples;Min_cycle;Max_cycle;Signal;HPM_P1;HPM_P2
2023/06/25 00:01:27;;;;;;;0.17;0.17;;;;;;;28.11;100.00;102044.81;10378303;28;20041;-80
2023/06/25 00:06:28;;;;;;;0.10;0.10;;;;;;;28.53;100.00;102040.03;10387137;28;20042;-81
2023/06/25 00:11:30;;;;;;;0.35;0.20;;;;;;;28.24;100.00;102039.19;10380983;28;20456;-81
2023/06/25 00:16:33;;;;;;;0.20;0.20;;;;;;;27.83;100.00;102044.75;10375706;28;20046;-81
2023/06/25 00:21:34;;;;;;;0.08;0.08;;;;;;;28.38;100.00;102042.25;10379774;28;20062;-82
2023/06/25 00:26:36;;;;;;;0.22;0.10;;;;;;;28.41;100.00;102039.50;10374632;28;20040;-82
2023/06/25 00:31:37;;;;;;;0.20;0.10;;;;;;;28.34;100.00;102037.97;10369943;28;20053;-83
2023/06/25 00:36:40;;;;;;;0.00;0.00;;;;;;;27.96;100.00;102034.69;10370450;28;20049;-82
2023/06/25 00:41:41;;;;;;;0.52;0.30;;;;;;;28.03;100.00;102031.78;10369028;28;20045;-82
2023/06/25 00:46:43;;;;;;;0.00;0.00;;;;;;;28.04;100.00;102032.66;10373956;28;20060;-81
2023/06/25 00:51:44;;;;;;;0.63;0.40;;;;;;;27.81;100.00;102028.91;10390411;28;20050;-81
2023/06/25 00:56:46;;;;;;;0.60;0.60;;;;;;;27.02;100.00;102030.13;10362688;28;20464;-82
2023/06/25 01:01:54;;;;;;;0.57;0.40;;;;;;;27.33;100.00;102021.41;10384613;28;20041;-81
2023/06/25 01:07:00;;;;;;;0.55;0.32;;;;;;;27.82;100.00;102016.53;10385497;28;20033;-83
2023/06/25 01:12:03;;;;;;;0.40;0.40;;;;;;;27.50;100.00;102013.91;10371338;28;20049;-81
2023/06/25 01:17:05;;;;;;;0.43;0.30;;;;;;;27.32;100.00;102009.97;10359062;28;20045;-82
2023/06/25 01:22:07;;;;;;;0.30;0.30;;;;;;;26.86;100.00;102014.66;10371356;28;20560;-82
2023/06/25 01:27:10;;;;;;;0.47;0.40;;;;;;;27.19;100.00;101996.19;10368408;28;20547;-82
2023/06/25 01:32:11;;;;;;;0.22;0.15;;;;;;;27.28;100.00;101989.78;10372722;28;20099;-82
2023/06/25 01:37:17;;;;;;;0.05;0.05;;;;;;;27.18;100.00;101983.88;10369407;28;20046;-82
2023/06/25 01:42:19;;;;;;;0.43;0.30;;;;;;;27.29;100.00;101980.94;10376274;28;20045;-81
2023/06/25 01:47:20;;;;;;;0.15;0.15;;;;;;;27.22;100.00;101977.56;10371355;28;20077;-83
2023/06/25 01:52:22;;;;;;;0.30;0.30;;;;;;;27.03;100.00;101971.06;10374357;28;20050;-82
2023/06/25 01:57:24;;;;;;;0.85;0.28;;;;;;;27.28;100.00;101967.75;10373829;28;20071;-83
2023/06/25 02:02:25;;;;;;;0.45;0.32;;;;;;;27.26;100.00;101965.13;10365698;28;20045;-81
2023/06/25 02:07:27;;;;;;;0.10;0.10;;;;;;;27.11;100.00;101958.50;10383486;28;20101;-82
2023/06/25 02:12:29;;;;;;;0.13;0.13;;;;;;;26.68;100.00;101952.50;10367032;28;20042;-81
2023/06/25 02:17:30;;;;;;;0.28;0.28;;;;;;;27.12;100.00;101957.59;10367446;28;20046;-81
2023/06/25 02:22:32;;;;;;;0.35;0.32;;;;;;;26.86;100.00;101945.91;10366022;28;20042;-82
2023/06/25 02:27:33;;;;;;;0.22;0.20;;;;;;;27.12;100.00;101943.47;10368986;28;20046;-82
2023/06/25 02:32:36;;;;;;;1.27;0.40;;;;;;;27.03;100.00;101941.97;10356058;28;20037;-83
2023/06/25 02:37:37;;;;;;;0.43;0.22;;;;;;;26.26;100.00;101945.59;10374893;28;20046;-82
2023/06/25 02:42:39;;;;;;;0.35;0.30;;;;;;;26.91;100.00;101940.50;10376105;28;20046;-82
2023/06/25 02:47:44;;;;;;;0.38;0.32;;;;;;;26.97;100.00;101926.25;10361748;28;20053;-83
2023/06/25 02:52:47;;;;;;;0.20;0.20;;;;;;;27.32;100.00;101921.75;10369019;28;20127;-83
2023/06/25 02:57:49;;;;;;;0.20;0.17;;;;;;;26.79;100.00;101919.69;10365063;28;20046;-83
2023/06/25 03:02:50;;;;;;;0.05;0.05;;;;;;;26.53;100.00;101924.72;10377611;28;20499;-83
2023/06/25 03:07:54;;;;;;;0.30;0.30;;;;;;;26.07;100.00;101928.41;10375395;28;20046;-84
2023/06/25 03:12:56;;;;;;;0.30;0.20;;;;;;;26.01;100.00;101918.00;10382084;28;20064;-83
2023/06/25 03:17:58;;;;;;;0.40;0.20;;;;;;;26.23;100.00;101919.28;10357542;28;20042;-83
2023/06/25 03:23:00;;;;;;;1.10;0.73;;;;;;;25.92;100.00;101924.34;10375641;28;20435;-84
2023/06/25 03:28:02;;;;;;;0.52;0.35;;;;;;;25.94;100.00;101928.72;10385286;28;20049;-84
2023/06/25 03:33:04;;;;;;;0.98;0.43;;;;;;;26.28;100.00;101917.38;10373983;28;20079;-83
2023/06/25 03:38:07;;;;;;;0.20;0.20;;;;;;;26.19;100.00;101919.38;10373023;28;20650;-82
2023/06/25 03:43:10;;;;;;;0.88;0.52;;;;;;;26.21;100.00;101910.50;10372211;28;20117;-85
2023/06/25 03:48:12;;;;;;;0.20;0.20;;;;;;;26.59;100.00;101906.06;10356894;28;20053;-84
2023/06/25 03:53:14;;;;;;;0.00;0.00;;;;;;;25.63;100.00;101910.91;10370739;28;20592;-83
2023/06/25 03:58:17;;;;;;;0.35;0.35;;;;;;;26.07;100.00;101912.56;10373764;28;20069;-83
2023/06/25 04:03:18;;;;;;;0.30;0.25;;;;;;;26.30;100.00;101914.69;10371949;28;20133;-84
2023/06/25 04:08:20;;;;;;;0.30;0.30;;;;;;;25.88;100.00;101915.63;10373089;28;20137;-83
2023/06/25 04:13:22;;;;;;;0.00;0.00;;;;;;;25.83;100.00;101909.59;10370321;28;20469;-84
2023/06/25 04:18:25;;;;;;;0.85;0.52;;;;;;;26.09;100.00;101901.09;10376714;28;20049;-82
2023/06/25 04:23:26;;;;;;;0.55;0.45;;;;;;;26.01;100.00;101918.00;10374868;28;20497;-83
2023/06/25 04:28:28;;;;;;;0.30;0.25;;;;;;;26.85;100.00;101901.88;10373813;28;20132;-84
2023/06/25 04:33:30;;;;;;;0.10;0.10;;;;;;;26.52;100.00;101901.81;10372535;28;20046;-83
2023/06/25 04:38:33;;;;;;;1.55;0.30;;;;;;;26.36;100.00;101909.25;10374658;28;20054;-86
2023/06/25 04:43:34;;;;;;;0.82;0.45;;;;;;;26.91;100.00;101906.13;10383268;28;20046;-83
2023/06/25 04:48:37;;;;;;;0.47;0.30;;;;;;;26.95;100.00;101906.91;10387851;28;20080;-83
2023/06/25 04:53:39;;;;;;;0.60;0.50;;;;;;;27.48;100.00;101899.28;10378113;28;20108;-84
2023/06/25 04:58:41;;;;;;;0.30;0.30;;;;;;;27.06;100.00;101899.56;10381641;28;20045;-84
2023/06/25 05:03:43;;;;;;;0.57;0.47;;;;;;;27.81;100.00;101898.31;10381568;28;20104;-84
2023/06/25 05:08:45;;;;;;;1.73;0.50;;;;;;;27.60;100.00;101894.53;10387738;28;20042;-84
2023/06/25 05:13:46;;;;;;;0.08;0.08;;;;;;;27.85;100.00;101899.97;10370393;28;20061;-84
2023/06/25 05:18:48;;;;;;;0.38;0.38;;;;;;;27.74;100.00;101897.63;10380085;28;20038;-84
2023/06/25 05:23:58;;;;;;;1.60;0.82;;;;;;;27.15;100.00;101894.00;10369947;28;20052;-84
2023/06/25 05:29:01;;;;;;;1.42;0.60;;;;;;;27.49;100.00;101890.44;10382552;28;20050;-83
2023/06/25 05:34:02;;;;;;;0.60;0.45;;;;;;;28.35;100.00;101891.31;10362633;28;20057;-84
2023/06/25 05:39:04;;;;;;;1.02;0.80;;;;;;;28.11;100.00;101891.19;10373791;28;20053;-83
2023/06/25 05:44:06;;;;;;;0.93;0.60;;;;;;;27.26;100.00;101901.63;10377181;28;20053;-85
2023/06/25 05:49:10;;;;;;;1.02;0.68;;;;;;;28.62;100.00;101886.00;10376094;28;20049;-84
2023/06/25 05:54:12;;;;;;;0.43;0.43;;;;;;;28.73;100.00;101881.19;10377059;28;20056;-84
2023/06/25 05:59:13;;;;;;;1.00;0.63;;;;;;;29.20;100.00;101877.75;10369802;28;20535;-84
2023/06/25 06:04:15;;;;;;;0.98;0.80;;;;;;;27.72;100.00;101883.56;10375851;28;20106;-86
2023/06/25 06:09:20;;;;;;;0.70;0.70;;;;;;;29.40;100.00;101878.81;10372324;28;20054;-85
2023/06/25 06:14:22;;;;;;;4.30;1.80;;;;;;;30.43;100.00;101872.94;10358565;28;20062;-84
2023/06/25 06:19:24;;;;;;;1.05;0.60;;;;;;;29.68;100.00;101883.91;10370561;28;20041;-84
2023/06/25 06:24:27;;;;;;;6.50;1.33;;;;;;;30.38;100.00;101883.81;10378535;28;20054;-85
2023/06/25 06:29:28;;;;;;;0.45;0.45;;;;;;;29.42;100.00;101888.44;10371796;28;20049;-83
2023/06/25 06:34:30;;;;;;;2.10;1.30;;;;;;;30.38;100.00;101868.69;10376003;28;20037;-83
2023/06/25 06:39:32;;;;;;;1.05;1.02;;;;;;;30.40;100.00;101860.66;10366857;28;20438;-83
2023/06/25 06:44:34;;;;;;;0.60;0.35;;;;;;;30.16;100.00;101867.88;10372352;28;20053;-83
2023/06/25 06:49:35;;;;;;;0.88;0.50;;;;;;;30.54;100.00;101868.06;10382941;28;20030;-82
2023/06/25 06:54:37;;;;;;;0.30;0.30;;;;;;;30.36;100.00;101862.56;10384291;28;20038;-83
2023/06/25 06:59:39;;;;;;;0.25;0.25;;;;;;;31.12;100.00;101869.09;10378393;28;20042;-83
2023/06/25 07:04:40;;;;;;;0.57;0.30;;;;;;;31.67;100.00;101864.81;10377414;28;20057;-85
2023/06/25 07:09:53;;;;;;;1.38;0.77;;;;;;;32.66;100.00;101855.41;10372432;28;20588;-83
2023/06/25 07:14:55;;;;;;;0.57;0.52;;;;;;;32.83;100.00;101862.53;10375377;28;20124;-84
2023/06/25 07:19:56;;;;;;;1.00;0.73;;;;;;;33.03;100.00;101855.25;10369836;28;20042;-82
2023/06/25 07:24:59;;;;;;;0.20;0.10;;;;;;;32.90;100.00;101849.72;10388601;28;20038;-82
2023/06/25 07:30:01;;;;;;;0.95;0.75;;;;;;;32.26;100.00;101853.00;10382084;28;20042;-82
2023/06/25 07:35:03;;;;;;;7.85;1.75;;;;;;;33.42;100.00;101851.34;10374074;28;20049;-82
2023/06/25 07:40:05;;;;;;;1.42;1.13;;;;;;;32.56;100.00;101852.34;10367547;28;20105;-82
2023/06/25 07:45:07;;;;;;;0.50;0.40;;;;;;;34.50;100.00;101840.72;10342488;28;20467;-83
2023/06/25 07:50:09;;;;;;;1.75;0.82;;;;;;;33.59;100.00;101855.72;10367483;28;20034;-80
2023/06/25 07:55:10;;;;;;;1.05;0.85;;;;;;;33.38;100.00;101853.34;10364500;28;20536;-83
2023/06/25 08:00:13;;;;;;;1.00;0.73;;;;;;;34.10;100.00;101843.97;10375705;28;20131;-83
2023/06/25 08:05:14;;;;;;;0.45;0.40;;;;;;;34.34;100.00;101833.59;10365323;28;20464;-81
2023/06/25 08:10:16;;;;;;;1.95;0.65;;;;;;;34.54;100.00;101831.53;10369690;28;20045;-81
2023/06/25 08:15:17;;;;;;;0.98;0.95;;;;;;;34.29;100.00;101833.88;10371548;28;20053;-82
2023/06/25 08:20:19;;;;;;;2.03;1.65;;;;;;;35.41;100.00;101838.59;10376322;28;20519;-81
2023/06/25 08:25:23;;;;;;;0.57;0.57;;;;;;;36.54;100.00;101827.50;10381191;28;20092;-81
2023/06/25 08:30:25;;;;;;;0.65;0.47;;;;;;;35.09;100.00;101841.50;10370805;28;20040;-81
2023/06/25 08:35:26;;;;;;;2.35;1.13;;;;;;;34.64;100.00;101843.41;10376688;28;20042;-82
2023/06/25 08:40:30;;;;;;;2.17;0.85;;;;;;;35.27;100.00;101835.91;10373678;28;20076;-82
2023/06/25 08:45:31;;;;;;;1.42;0.82;;;;;;;34.50;100.00;101830.03;10371296;28;20092;-81
2023/06/25 08:50:34;;;;;;;1.27;0.85;;;;;;;36.25;100.00;101816.97;10383903;28;20156;-82
2023/06/25 08:55:37;;;;;;;0.73;0.40;;;;;;;37.36;100.00;101824.41;10371698;28;20053;-82
2023/06/25 09:00:39;;;;;;;0.70;0.60;;;;;;;37.25;100.00;101816.22;10380884;28;20050;-81
2023/06/25 09:05:50;;;;;;;1.17;0.60;;;;;;;35.54;99.67;101825.25;10383464;28;20421;-81
2023/06/25 09:10:56;;;;;;;1.10;0.50;;;;;;;36.21;100.00;101807.41;10375128;28;20038;-81
2023/06/25 09:16:03;;;;;;;0.73;0.47;;;;;;;36.28;97.38;101802.47;10379139;28;20049;-80
2023/06/25 09:21:08;;;;;;;0.88;0.60;;;;;;;36.75;100.00;101800.13;10370595;28;20053;-81
2023/06/25 09:26:10;;;;;;;1.35;1.00;;;;;;;36.17;96.08;101808.59;10383101;28;20785;-80
2023/06/25 09:31:16;;;;;;;0.15;0.13;;;;;;;35.15;92.99;101801.91;10385934;28;20148;-81
2023/06/25 09:36:19;;;;;;;0.63;0.47;;;;;;;36.58;95.34;101790.56;10377678;28;20053;-81
2023/06/25 09:41:42;;;;;;;0.55;0.35;;;;;;;36.00;96.71;101789.19;10377338;28;20038;-81
2023/06/25 09:46:46;;;;;;;1.02;0.73;;;;;;;37.06;91.33;101784.47;10393180;28;20049;-81
2023/06/25 09:51:58;;;;;;;0.45;0.38;;;;;;;36.51;94.39;101779.44;10391702;28;20069;-80
2023/06/25 09:57:03;;;;;;;0.80;0.70;;;;;;;36.27;92.46;101781.97;10376002;28;20071;-79
2023/06/25 10:02:06;;;;;;;1.35;0.57;;;;;;;36.59;93.43;101765.47;10368821;28;20112;-81
2023/06/25 10:07:08;;;;;;;0.52;0.30;;;;;;;37.45;90.47;101771.78;10376852;28;20077;-82
2023/06/25 10:12:10;;;;;;;1.98;1.10;;;;;;;36.95;94.70;101771.84;10370948;28;20042;-82
2023/06/25 10:17:12;;;;;;;0.43;0.43;;;;;;;37.75;95.97;101754.28;10369862;28;20046;-82
2023/06/25 10:22:16;;;;;;;0.52;0.40;;;;;;;36.71;92.71;101761.91;10383440;28;20083;-82
2023/06/25 10:27:21;;;;;;;1.55;0.98;;;;;;;37.47;88.04;101753.72;10371177;28;20054;-83
2023/06/25 10:32:25;;;;;;;0.63;0.30;;;;;;;37.30;87.08;101745.06;10371383;28;20550;-82
2023/06/25 10:37:31;;;;;;;1.05;0.70;;;;;;;37.18;88.19;101751.38;10376434;28;20073;-82
2023/06/25 10:42:36;;;;;;;0.95;0.63;;;;;;;37.12;94.95;101735.72;10389679;28;20041;-84
2023/06/25 10:47:38;;;;;;;1.13;0.70;;;;;;;36.84;89.59;101735.00;10382220;28;20048;-82
2023/06/25 10:52:41;;;;;;;0.40;0.40;;;;;;;38.20;92.83;101727.50;10377988;28;20121;-81
2023/06/25 10:57:43;;;;;;;0.57;0.30;;;;;;;37.57;88.06;101725.13;10381880;28;20046;-83
2023/06/25 11:02:50;;;;;;;0.40;0.32;;;;;;;36.50;94.72;101729.41;10373861;28;20037;-83
2023/06/25 11:07:54;;;;;;;0.85;0.38;;;;;;;36.59;93.23;101718.03;10385911;28;20046;-84
2023/06/25 11:12:55;;;;;;;0.30;0.20;;;;;;;37.58;84.92;101716.09;10374758;28;20420;-83
2023/06/25 11:17:57;;;;;;;0.30;0.25;;;;;;;36.05;87.16;101714.63;10378230;28;20132;-83
2023/06/25 11:23:01;;;;;;;0.40;0.40;;;;;;;36.27;87.47;101702.38;10377535;28;20040;-82
2023/06/25 11:28:08;;;;;;;0.65;0.50;;;;;;;35.61;89.61;101699.75;10374808;28;20089;-83
2023/06/25 11:33:11;;;;;;;0.60;0.30;;;;;;;38.16;86.11;101693.75;10376021;28;20042;-82
2023/06/25 11:38:24;;;;;;;0.93;0.65;;;;;;;37.98;82.61;101687.13;10381940;28;20042;-81
2023/06/25 11:43:27;;;;;;;0.65;0.40;;;;;;;36.81;84.97;101701.19;10380469;28;20512;-82
2023/06/25 11:48:29;;;;;;;0.63;0.45;;;;;;;37.58;87.76;101683.84;10380875;28;20064;-83
2023/06/25 11:53:31;;;;;;;0.85;0.55;;;;;;;35.78;87.20;101692.38;10375309;28;20118;-83
2023/06/25 11:58:33;;;;;;;0.38;0.22;;;;;;;37.97;86.77;101672.84;10380900;28;20497;-83
2023/06/25 12:03:34;;;;;;;0.10;0.10;;;;;;;36.12;84.06;101682.00;10383478;28;20080;-84
2023/06/25 12:08:36;;;;;;;0.52;0.35;;;;;;;36.68;87.77;101677.06;10388353;28;20049;-84
2023/06/25 12:13:38;;;;;;;0.20;0.20;;;;;;;36.19;86.35;101672.56;10379782;28;20034;-84
2023/06/25 12:18:40;;;;;;;0.20;0.20;;;;;;;37.46;86.30;101663.31;10376725;28;20046;-82
2023/06/25 12:23:41;;;;;;;0.20;0.17;;;;;;;35.89;83.75;101654.94;10380924;28;20068;-84
2023/06/25 12:28:43;;;;;;;0.15;0.15;;;;;;;36.10;88.46;101654.44;10380721;28;20045;-82
2023/06/25 12:33:44;;;;;;;1.27;0.60;;;;;;;35.45;85.27;101640.13;10376182;28;20054;-83
2023/06/25 12:38:46;;;;;;;0.68;0.40;;;;;;;35.98;81.59;101642.75;10379836;28;20053;-84
2023/06/25 12:43:47;;;;;;;0.43;0.30;;;;;;;35.88;83.49;101637.16;10381801;28;20075;-83
2023/06/25 12:48:49;;;;;;;0.30;0.30;;;;;;;35.65;86.32;101626.22;10361642;28;20050;-83
2023/06/25 12:53:51;;;;;;;0.55;0.38;;;;;;;36.29;88.87;101613.72;10375418;28;20064;-83
2023/06/25 12:58:52;;;;;;;0.20;0.20;;;;;;;36.68;78.16;101609.97;10374802;28;20501;-84
2023/06/25 13:03:54;;;;;;;11.50;0.57;;;;;;;36.17;84.18;101602.06;10372576;28;20746;-84
2023/06/25 13:08:55;;;;;;;0.43;0.28;;;;;;;35.37;82.43;101601.31;10373844;28;20531;-84
2023/06/25 13:13:57;;;;;;;0.15;0.13;;;;;;;35.84;83.99;101598.13;10372548;28;20093;-85
2023/06/25 13:18:59;;;;;;;0.28;0.20;;;;;;;35.71;81.72;101598.97;10374208;28;20060;-87
2023/06/25 13:24:00;;;;;;;1.48;1.05;;;;;;;35.94;83.54;101591.16;10362957;28;20505;-85
2023/06/25 13:29:02;;;;;;;0.95;0.43;;;;;;;35.86;85.57;101590.81;10377685;28;20451;-85
2023/06/25 13:34:03;;;;;;;1.60;0.75;;;;;;;35.90;79.21;101587.00;10368708;28;20049;-87
2023/06/25 13:39:06;;;;;;;0.20;0.20;;;;;;;35.40;78.51;101582.38;10372743;28;20077;-85
2023/06/25 13:44:07;;;;;;;0.45;0.40;;;;;;;35.67;78.05;101581.41;10378075;28;20042;-85
2023/06/25 13:49:09;;;;;;;0.30;0.30;;;;;;;36.33;80.39;101573.16;10375203;28;20041;-85
2023/06/25 13:54:11;;;;;;;0.30;0.30;;;;;;;36.12;79.84;101569.38;10365373;28;20046;-86
2023/06/25 13:59:13;;;;;;;0.43;0.43;;;;;;;36.08;79.45;101570.56;10365194;28;20048;-86
2023/06/25 14:04:14;;;;;;;2.03;1.25;;;;;;;36.01;79.44;101568.31;10364688;28;20475;-85
2023/06/25 14:09:16;;;;;;;0.40;0.22;;;;;;;37.31;77.04;101558.69;10370954;28;20065;-86
2023/06/25 14:14:18;;;;;;;0.20;0.20;;;;;;;35.83;83.02;101564.25;10371843;28;20057;-86
2023/06/25 14:19:19;;;;;;;0.17;0.15;;;;;;;36.05;76.66;101559.09;10364232;28;20501;-83
2023/06/25 14:24:24;;;;;;;0.55;0.30;;;;;;;36.05;73.67;101543.00;10376651;28;20037;-84
2023/06/25 14:29:25;;;;;;;0.15;0.15;;;;;;;36.16;76.70;101541.34;10372619;28;20056;-85
2023/06/25 14:34:27;;;;;;;0.70;0.50;;;;;;;36.27;80.05;101536.06;10370759;28;20057;-86
2023/06/25 14:39:28;;;;;;;0.30;0.25;;;;;;;36.48;80.76;101522.03;10375978;28;20813;-86
2023/06/25 14:44:30;;;;;;;0.43;0.30;;;;;;;35.91;81.03;101518.13;10345578;28;20054;-86
2023/06/25 14:49:32;;;;;;;0.10;0.10;;;;;;;36.03;76.11;101517.28;10356462;28;20497;-86
2023/06/25 14:54:33;;;;;;;0.20;0.20;;;;;;;36.23;76.54;101513.09;10376400;28;20046;-86
2023/06/25 14:59:35;;;;;;;0.55;0.32;;;;;;;35.66;77.40;101510.00;10367246;28;20073;-86
2023/06/25 15:04:37;;;;;;;0.35;0.35;;;;;;;36.02;79.80;101511.03;10371783;28;20038;-84
2023/06/25 15:09:39;;;;;;;0.52;0.38;;;;;;;35.95;77.06;101498.19;10377721;28;20045;-88
2023/06/25 15:14:40;;;;;;;1.10;0.57;;;;;;;36.44;82.11;101499.09;10382002;28;20463;-86
2023/06/25 15:19:45;;;;;;;0.93;0.50;;;;;;;36.28;76.78;101497.53;10360084;28;20140;-85
2023/06/25 15:24:47;;;;;;;0.17;0.10;;;;;;;35.89;76.44;101494.09;10382318;28;20044;-85
2023/06/25 15:29:48;;;;;;;1.38;1.08;;;;;;;35.98;77.27;101493.47;10382688;28;20068;-85
2023/06/25 15:34:50;;;;;;;0.10;0.10;;;;;;;36.29;80.93;101482.28;10381527;28;20113;-85
2023/06/25 15:39:51;;;;;;;0.45;0.40;;;;;;;35.91;78.43;101476.13;10378264;28;20053;-84
2023/06/25 15:44:53;;;;;;;0.52;0.43;;;;;;;36.32;82.15;101472.19;10383941;28;20034;-85
2023/06/25 15:49:54;;;;;;;1.00;0.28;;;;;;;36.31;80.68;101466.94;10371155;28;20071;-83
2023/06/25 15:54:56;;;;;;;0.70;0.52;;;;;;;36.23;77.87;101456.78;10376077;28;20052;-83
2023/06/25 15:59:58;;;;;;;0.68;0.45;;;;;;;36.44;78.18;101458.84;10377442;28;20503;-83
2023/06/25 16:04:59;;;;;;;0.50;0.28;;;;;;;36.90;82.43;101455.34;10362249;28;20042;-82
2023/06/25 16:10:01;;;;;;;0.40;0.40;;;;;;;36.11;80.79;101449.66;10371678;28;20049;-81
2023/06/25 16:15:05;;;;;;;0.10;0.10;;;;;;;36.09;79.49;101446.22;10360444;28;20121;-85
2023/06/25 16:20:07;;;;;;;0.88;0.47;;;;;;;36.56;81.95;101439.13;10371301;28;20049;-88
2023/06/25 16:25:13;;;;;;;0.65;0.43;;;;;;;36.32;79.89;101439.16;10366319;28;20247;-84
2023/06/25 16:30:15;;;;;;;0.20;0.20;;;;;;;35.68;79.75;101435.72;10373598;28;20057;-87
2023/06/25 16:35:17;;;;;;;0.20;0.08;;;;;;;36.24;80.50;101422.78;10365871;28;20517;-85
2023/06/25 16:40:18;;;;;;;0.35;0.25;;;;;;;36.04;82.18;101423.28;10355116;28;20054;-84
2023/06/25 16:45:20;;;;;;;0.65;0.50;;;;;;;36.17;83.55;101419.69;10367855;28;20460;-83
2023/06/25 16:50:21;;;;;;;0.90;0.30;;;;;;;36.20;78.08;101417.63;10364813;28;20050;-82
2023/06/25 16:55:23;;;;;;;0.35;0.20;;;;;;;36.00;79.97;101413.78;10366597;28;20042;-85
2023/06/25 17:00:25;;;;;;;0.63;0.32;;;;;;;35.83;79.90;101401.56;10365360;28;20050;-87
2023/06/25 17:05:26;;;;;;;0.35;0.20;;;;;;;36.62;81.45;101401.09;10374280;28;20823;-86
2023/06/25 17:10:28;;;;;;;0.10;0.10;;;;;;;36.19;80.12;101398.97;10374288;28;20058;-86
2023/06/25 17:15:29;;;;;;;0.30;0.25;;;;;;;35.77;83.52;101404.72;10374180;28;20050;-87
2023/06/25 17:20:31;;;;;;;0.60;0.40;;;;;;;35.94;84.04;101389.25;10370414;28;20045;-85
2023/06/25 17:25:32;;;;;;;0.32;0.32;;;;;;;35.96;84.53;101393.53;10374900;28;20050;-83
2023/06/25 17:30:34;;;;;;;0.20;0.20;;;;;;;36.35;84.86;101394.16;10370978;28;20570;-88
2023/06/25 17:35:36;;;;;;;0.20;0.20;;;;;;;36.11;83.42;101387.97;10371985;28;20057;-88
2023/06/25 17:40:38;;;;;;;0.32;0.32;;;;;;;35.87;84.98;101383.44;10347403;28;20057;-87
2023/06/25 17:45:40;;;;;;;0.28;0.20;;;;;;;36.03;82.88;101384.03;10359733;28;20048;-88
2023/06/25 17:50:41;;;;;;;0.43;0.43;;;;;;;36.39;85.50;101388.53;10371008;28;20110;-87
2023/06/25 17:55:43;;;;;;;0.63;0.38;;;;;;;36.19;85.75;101393.63;10370084;28;20046;-85
2023/06/25 18:00:45;;;;;;;0.55;0.38;;;;;;;36.32;88.10;101389.03;10372743;28;20048;-85
2023/06/25 18:05:46;;;;;;;0.20;0.20;;;;;;;36.27;87.54;101387.66;10372248;28;20076;-88
2023/06/25 18:10:52;;;;;;;0.30;0.28;;;;;;;36.02;88.69;101387.69;10351459;28;20100;-84
2023/06/25 18:15:54;;;;;;;0.52;0.30;;;;;;;35.87;87.83;101383.44;10362097;28;20042;-80
2023/06/25 18:20:55;;;;;;;0.20;0.15;;;;;;;35.65;90.16;101378.81;10359716;28;20501;-81
2023/06/25 18:25:57;;;;;;;0.22;0.10;;;;;;;35.83;89.27;101376.59;10366877;28;20138;-82
2023/06/25 18:31:04;;;;;;;0.47;0.30;;;;;;;35.93;88.74;101382.16;10361408;28;20049;-82
2023/06/25 18:36:05;;;;;;;0.10;0.10;;;;;;;36.04;90.85;101375.03;10364626;28;20052;-82
2023/06/25 18:41:07;;;;;;;0.08;0.08;;;;;;;35.89;89.24;101365.41;10367650;28;20041;-82
2023/06/25 18:46:08;;;;;;;0.17;0.10;;;;;;;35.39;88.35;101366.38;10379694;28;20041;-83
2023/06/25 18:51:10;;;;;;;0.40;0.17;;;;;;;34.91;90.00;101367.06;10386488;28;20042;-84
2023/06/25 18:56:12;;;;;;;0.40;0.20;;;;;;;35.45;88.77;101356.16;10379651;28;20057;-84
2023/06/25 19:01:13;;;;;;;0.00;0.00;;;;;;;35.51;87.66;101350.34;10379541;28;20562;-88
2023/06/25 19:06:15;;;;;;;0.15;0.15;;;;;;;35.18;92.21;101354.50;10395161;28;20045;-81
2023/06/25 19:11:16;;;;;;;0.00;0.00;;;;;;;34.92;95.28;101349.16;10382516;28;20061;-82
2023/06/25 19:16:18;;;;;;;0.10;0.10;;;;;;;34.19;98.44;101351.41;10388771;28;20045;-82
2023/06/25 19:21:19;;;;;;;0.43;0.30;;;;;;;34.08;98.65;101338.75;10388945;28;20072;-85
2023/06/25 19:26:21;;;;;;;1.42;0.40;;;;;;;33.98;99.37;101335.00;10384488;28;20447;-82
2023/06/25 19:31:22;;;;;;;0.47;0.40;;;;;;;34.08;98.23;101337.91;10393761;28;20050;-80
2023/06/25 19:36:24;;;;;;;0.85;0.73;;;;;;;33.82;99.00;101336.00;10381666;28;20112;-82
2023/06/25 19:41:27;;;;;;;0.55;0.20;;;;;;;32.94;100.00;101330.03;10382174;28;20104;-83
2023/06/25 19:46:29;;;;;;;0.10;0.10;;;;;;;32.73;100.00;101328.56;10392798;28;20104;-83
2023/06/25 19:51:30;;;;;;;0.52;0.50;;;;;;;32.41;100.00;101333.19;10378091;28;20046;-82
2023/06/25 19:56:32;;;;;;;1.90;0.47;;;;;;;32.11;100.00;101328.69;10360904;28;20083;-81
2023/06/25 20:01:34;;;;;;;0.43;0.22;;;;;;;32.03;100.00;101329.13;10378203;28;20043;-81
2023/06/25 20:06:37;;;;;;;0.73;0.65;;;;;;;32.49;100.00;101325.59;10378322;28;20713;-82
2023/06/25 20:11:39;;;;;;;0.57;0.25;;;;;;;32.06;100.00;101333.41;10381046;28;20042;-83
2023/06/25 20:16:41;;;;;;;0.10;0.10;;;;;;;31.82;100.00;101325.03;10379584;28;20108;-86
2023/06/25 20:21:42;;;;;;;0.20;0.20;;;;;;;31.39;100.00;101328.31;10380987;28;20069;-85
2023/06/25 20:26:44;;;;;;;0.35;0.30;;;;;;;31.69;100.00;101328.41;10379864;28;20047;-83
2023/06/25 20:31:45;;;;;;;0.45;0.10;;;;;;;30.90;100.00;101330.00;10374844;28;20045;-83
2023/06/25 20:36:48;;;;;;;0.20;0.10;;;;;;;31.16;100.00;101333.94;10376438;28;20444;-83
2023/06/25 20:41:49;;;;;;;0.20;0.20;;;;;;;30.58;100.00;101337.88;10380225;28;20037;-84
2023/06/25 20:46:51;;;;;;;0.28;0.28;;;;;;;30.89;100.00;101330.94;10378968;28;20050;-84
2023/06/25 20:51:52;;;;;;;0.65;0.50;;;;;;;30.64;100.00;101334.88;10375751;28;20053;-83
2023/06/25 20:56:55;;;;;;;0.20;0.20;;;;;;;30.54;100.00;101338.97;10376078;28;20045;-83
2023/06/25 21:01:56;;;;;;;0.28;0.28;;;;;;;30.91;100.00;101333.50;10374736;28;20049;-84
2023/06/25 21:06:58;;;;;;;0.60;0.30;;;;;;;30.75;100.00;101338.78;10375578;28;20038;-83
2023/06/25 21:11:59;;;;;;;0.82;0.40;;;;;;;30.44;100.00;101329.72;10370707;28;20041;-83
2023/06/25 21:17:01;;;;;;;0.63;0.38;;;;;;;30.59;100.00;101338.75;10359969;28;20093;-83
2023/06/25 21:22:02;;;;;;;0.80;0.55;;;;;;;30.05;100.00;101331.66;10361003;28;20408;-81
2023/06/25 21:27:04;;;;;;;0.20;0.13;;;;;;;29.97;100.00;101326.75;10360221;28;20041;-83
2023/06/25 21:32:06;;;;;;;0.70;0.30;;;;;;;30.32;100.00;101310.81;10362094;28;20068;-82
2023/06/25 21:37:08;;;;;;;0.47;0.47;;;;;;;30.28;100.00;101319.00;10363074;28;20075;-83
2023/06/25 21:42:09;;;;;;;0.52;0.52;;;;;;;30.77;100.00;101313.81;10372949;28;20064;-81
2023/06/25 21:47:11;;;;;;;0.00;0.00;;;;;;;31.20;100.00;101317.84;10364838;28;20519;-82
2023/06/25 21:52:17;;;;;;;0.35;0.22;;;;;;;30.82;100.00;101314.47;10359502;28;20095;-82
2023/06/25 21:57:19;;;;;;;0.30;0.30;;;;;;;30.25;100.00;101309.41;10355384;28;20045;-82
2023/06/25 22:02:20;;;;;;;0.20;0.20;;;;;;;30.62;100.00;101318.16;10370093;28;20049;-81
2023/06/25 22:07:25;;;;;;;0.10;0.10;;;;;;;30.41;100.00;101313.94;10369724;28;20104;-83
2023/06/25 22:12:27;;;;;;;0.22;0.17;;;;;;;30.00;100.00;101313.28;10365624;28;20092;-83
2023/06/25 22:17:29;;;;;;;0.10;0.10;;;;;;;30.45;100.00;101311.06;10376382;28;20073;-83
2023/06/25 22:22:31;;;;;;;0.77;0.40;;;;;;;29.08;100.00;101306.06;10365011;28;20113;-81
2023/06/25 22:27:32;;;;;;;0.05;0.05;;;;;;;29.72;100.00;101305.78;10365516;28;20042;-82
2023/06/25 22:32:52;;;;;;;0.45;0.30;;;;;;;29.88;100.00;101305.91;10353241;28;20095;-82
2023/06/25 22:37:54;;;;;;;0.45;0.30;;;;;;;29.15;100.00;101305.81;10352740;28;20915;-82
2023/06/25 22:42:56;;;;;;;1.38;0.50;;;;;;;29.06;100.00;101292.03;10365520;28;20053;-81
2023/06/25 22:47:57;;;;;;;0.20;0.20;;;;;;;28.59;100.00;101287.91;10373033;28;20048;-82
2023/06/25 22:52:59;;;;;;;0.38;0.30;;;;;;;29.29;100.00;101287.44;10378749;28;20425;-82
2023/06/25 22:58:01;;;;;;;0.73;0.43;;;;;;;29.34;100.00;101277.50;10376193;28;20077;-81